Air Navigation Services of Czech Republic
Airport: LKCV Updated:  28.10.2020 04:57:24  UTC
 METAR LKCV 28.10. 05:00 ...
METAR LKCV 280500Z 18008KT CAVOK 04/02 Q1014 NOSIG RMK BLU BLU=
 TAF LKCV 27.10. 23:00 ...
TAF LKCV 272300Z 2800/2900 15005KT CAVOK      TEMPO 2800/2808 5000 BR      PROB30 TEMPO 2801/2807 1200 BR SCT004      BECMG 2809/2811 22006KT BKN040      TEMPO 2810/2816 7000 RA SCT020 BKN030=